createdAt,value
2023-05-17T00:03:45.348Z,3.33
2023-05-17T00:07:56.998Z,2.90
2023-05-17T00:12:08.672Z,2.83
2023-05-17T00:16:20.315Z,3.43
2023-05-17T00:20:31.996Z,2.97
2023-05-17T00:24:43.608Z,3.33
2023-05-17T00:28:55.365Z,3.37
2023-05-17T00:33:07.174Z,3.40
2023-05-17T00:37:18.891Z,2.80
2023-05-17T00:41:30.679Z,3.63
2023-05-17T00:45:42.349Z,2.97
2023-05-17T00:49:54.184Z,3.93
2023-05-17T00:54:06.410Z,3.07
2023-05-17T00:58:18.301Z,3.00
2023-05-17T01:02:31.285Z,3.73
2023-05-17T01:06:43.585Z,4.03
2023-05-17T01:11:14.019Z,3.30
2023-05-17T01:15:31.446Z,3.37
2023-05-17T01:19:55.286Z,3.43
2023-05-17T01:24:26.139Z,3.50
2023-05-17T01:28:40.447Z,4.10
2023-05-17T01:32:55.864Z,3.80
2023-05-17T01:37:07.534Z,2.97
2023-05-17T01:41:29.303Z,3.70
2023-05-17T01:45:47.554Z,4.63
2023-05-17T01:50:00.474Z,3.80
2023-05-17T01:54:14.099Z,4.43
2023-05-17T01:58:26.560Z,4.40
2023-05-17T02:02:38.627Z,4.27
2023-05-17T02:06:50.500Z,4.00
2023-05-17T02:11:02.234Z,3.87
2023-05-17T02:15:16.662Z,3.97
2023-05-17T02:19:28.409Z,3.93
2023-05-17T02:23:40.081Z,4.13
2023-05-17T02:27:51.732Z,4.07
2023-05-17T02:32:03.519Z,4.23
2023-05-17T02:36:15.146Z,4.37
2023-05-17T02:40:26.817Z,4.03
2023-05-17T02:44:38.745Z,4.10
2023-05-17T02:48:50.356Z,4.17
2023-05-17T02:53:02.138Z,5.00
2023-05-17T02:57:13.918Z,4.27
2023-05-17T03:01:26.143Z,4.27
2023-05-17T03:05:38.400Z,4.07
2023-05-17T03:09:50.063Z,4.27
2023-05-17T03:14:02.426Z,5.33
2023-05-17T03:18:16.606Z,4.37
2023-05-17T03:22:28.992Z,4.37
2023-05-17T03:26:41.272Z,4.63
2023-05-17T03:30:54.856Z,4.77
2023-05-17T03:35:07.506Z,4.90
2023-05-17T03:39:20.347Z,4.83
2023-05-17T03:43:32.080Z,3.90
2023-05-17T03:47:45.181Z,4.13
2023-05-17T03:51:57.459Z,3.80
2023-05-17T03:56:10.508Z,4.33
2023-05-17T04:00:23.278Z,4.90
2023-05-17T04:04:37.510Z,4.27
2023-05-17T04:08:49.298Z,4.50
2023-05-17T04:13:01.408Z,4.30
2023-05-17T04:17:14.004Z,4.07
2023-05-17T04:21:27.839Z,4.10
2023-05-17T04:25:40.726Z,4.03
2023-05-17T04:29:53.116Z,4.47
2023-05-17T04:34:05.879Z,4.27
2023-05-17T04:38:17.920Z,3.70
2023-05-17T04:42:29.725Z,4.73
2023-05-17T04:46:44.224Z,4.13
2023-05-17T04:51:00.759Z,4.80
2023-05-17T04:55:12.766Z,4.80
2023-05-17T04:59:24.763Z,4.50
2023-05-17T05:03:36.876Z,3.60
2023-05-17T05:07:51.789Z,3.97
2023-05-17T05:12:04.199Z,4.47
2023-05-17T05:16:17.067Z,3.85
2023-05-17T05:20:29.939Z,3.65
2023-05-17T05:24:42.330Z,4.25
2023-05-17T05:28:54.062Z,3.40
2023-05-17T05:33:06.166Z,3.22
2023-05-17T05:37:19.316Z,3.60
2023-05-17T05:41:31.363Z,2.95
2023-05-17T05:45:46.030Z,3.25
2023-05-17T05:49:58.053Z,3.47
2023-05-17T05:54:10.254Z,3.30
2023-05-17T05:58:23.582Z,3.50
2023-05-17T06:02:37.539Z,3.13
2023-05-17T06:06:49.364Z,3.00
2023-05-17T06:11:01.186Z,2.28
2023-05-17T06:15:12.952Z,2.45
2023-05-17T06:19:24.937Z,3.03
2023-05-17T06:23:36.756Z,2.70
2023-05-17T06:27:48.559Z,2.30
2023-05-17T06:32:00.348Z,2.83
2023-05-17T06:36:12.159Z,2.28
2023-05-17T06:40:23.912Z,2.70
2023-05-17T06:44:35.604Z,2.50
2023-05-17T06:48:50.161Z,2.05
2023-05-17T06:53:02.826Z,2.92
2023-05-17T06:57:14.518Z,2.22
2023-05-17T07:01:26.219Z,1.73
2023-05-17T07:05:37.903Z,1.70
2023-05-17T07:09:49.554Z,1.90
2023-05-17T07:14:01.242Z,1.92
2023-05-17T07:18:14.270Z,1.42
2023-05-17T07:22:26.018Z,1.98
2023-05-17T07:26:37.668Z,1.63
2023-05-17T07:30:49.780Z,1.73
2023-05-17T07:35:03.121Z,1.63
2023-05-17T07:39:14.883Z,1.60
2023-05-17T07:43:26.584Z,1.30
2023-05-17T07:47:38.302Z,1.73
2023-05-17T07:51:50.869Z,1.88
2023-05-17T07:56:02.624Z,1.30
2023-05-17T08:00:14.937Z,1.80
2023-05-17T08:04:26.686Z,1.77
2023-05-17T08:08:38.311Z,1.42
2023-05-17T08:12:49.924Z,1.90
2023-05-17T08:17:01.734Z,1.70
2023-05-17T08:21:13.499Z,1.85
2023-05-17T08:25:25.370Z,1.88
2023-05-17T08:29:39.513Z,1.85
2023-05-17T08:33:51.971Z,1.55
2023-05-17T08:38:03.830Z,1.77
2023-05-17T08:42:27.880Z,1.63
2023-05-17T08:46:41.560Z,1.58
2023-05-17T08:50:55.978Z,1.25
2023-05-17T08:55:09.072Z,1.48
2023-05-17T08:59:21.962Z,1.20
2023-05-17T09:03:35.589Z,1.20
2023-05-17T09:07:49.127Z,1.35
2023-05-17T09:12:02.559Z,1.35
2023-05-17T09:16:15.059Z,1.52
2023-05-17T09:20:35.312Z,1.50
2023-05-17T09:24:47.218Z,1.52
2023-05-17T09:28:58.994Z,1.25
2023-05-17T09:33:13.261Z,0.90
2023-05-17T09:37:26.873Z,1.45
2023-05-17T09:41:51.186Z,1.30
2023-05-17T09:46:02.912Z,1.05
2023-05-17T09:50:19.220Z,1.30
2023-05-17T09:54:38.105Z,1.45
2023-05-17T09:58:49.844Z,1.20
2023-05-17T10:03:04.534Z,1.25
2023-05-17T10:07:20.268Z,0.98
2023-05-17T10:11:35.364Z,1.55
2023-05-17T10:15:48.870Z,1.02
2023-05-17T10:20:01.284Z,1.13
2023-05-17T10:24:13.841Z,1.10
2023-05-17T10:28:27.331Z,1.27
2023-05-17T10:32:39.322Z,1.17
2023-05-17T10:36:52.045Z,1.42
2023-05-17T10:41:04.417Z,0.93
2023-05-17T10:45:16.320Z,1.05
2023-05-17T10:49:33.966Z,1.33
2023-05-17T10:54:18.363Z,1.45
2023-05-17T10:58:30.117Z,1.00
2023-05-17T11:02:43.560Z,1.50
2023-05-17T11:07:18.942Z,1.33
2023-05-17T11:11:30.920Z,1.55
2023-05-17T11:15:42.630Z,1.73
2023-05-17T11:19:54.355Z,1.58
2023-05-17T11:24:07.024Z,1.55
2023-05-17T11:28:20.860Z,1.42
2023-05-17T11:32:32.914Z,1.38
2023-05-17T11:36:53.033Z,1.50
2023-05-17T11:41:26.950Z,1.85
2023-05-17T11:45:43.449Z,1.38
2023-05-17T11:49:56.630Z,1.33
2023-05-17T11:54:09.714Z,1.55
2023-05-17T11:58:25.786Z,1.50
2023-05-17T12:02:38.165Z,1.50
2023-05-17T12:06:50.196Z,2.05
2023-05-17T12:11:02.809Z,1.65
2023-05-17T12:15:19.083Z,1.77
2023-05-17T12:19:32.697Z,1.45
2023-05-17T12:23:48.330Z,1.73
2023-05-17T12:28:22.134Z,1.30
2023-05-17T12:32:34.368Z,1.77
2023-05-17T12:36:46.673Z,1.63
2023-05-17T12:41:00.434Z,1.50
2023-05-17T12:45:13.112Z,1.33
2023-05-17T12:49:24.879Z,1.75
2023-05-17T12:53:44.479Z,1.45
2023-05-17T12:57:56.234Z,2.00
2023-05-17T13:02:07.964Z,1.35
2023-05-17T13:06:19.720Z,1.73
2023-05-17T13:10:31.676Z,1.88
2023-05-17T13:14:48.379Z,1.40
2023-05-17T13:19:00.173Z,1.70
2023-05-17T13:23:11.900Z,1.38
2023-05-17T13:27:23.557Z,2.20
2023-05-17T13:31:35.369Z,1.55
2023-05-17T13:35:47.079Z,1.35
2023-05-17T13:39:58.774Z,1.98
2023-05-17T13:44:11.033Z,1.98
2023-05-17T13:48:22.981Z,1.63
2023-05-17T13:52:34.734Z,1.83
2023-05-17T13:56:46.828Z,1.58
2023-05-17T14:00:59.356Z,1.50
2023-05-17T14:05:11.080Z,2.00
2023-05-17T14:09:22.739Z,1.63
2023-05-17T14:13:34.467Z,1.80
2023-05-17T14:17:46.459Z,2.17
2023-05-17T14:21:58.279Z,1.60
2023-05-17T14:26:10.023Z,1.58
2023-05-17T14:30:21.895Z,1.42
2023-05-17T14:34:33.599Z,2.30
2023-05-17T14:38:45.271Z,1.90
2023-05-17T14:42:57.125Z,1.63
2023-05-17T14:47:08.907Z,2.05
2023-05-17T14:51:20.669Z,1.70
2023-05-17T14:55:32.540Z,1.35
2023-05-17T14:59:45.196Z,2.20
2023-05-17T15:03:57.076Z,1.90
2023-05-17T15:08:08.855Z,1.77
2023-05-17T15:12:20.572Z,1.80
2023-05-17T15:16:33.451Z,2.00
2023-05-17T15:20:45.247Z,2.10
2023-05-17T15:24:58.369Z,1.90
2023-05-17T15:29:10.145Z,1.80
2023-05-17T15:33:22.288Z,1.70
2023-05-17T15:37:34.071Z,1.80
2023-05-17T15:41:45.801Z,1.55
2023-05-17T15:45:57.775Z,1.30
2023-05-17T15:50:09.701Z,1.40
2023-05-17T15:54:21.480Z,1.60
2023-05-17T15:58:33.597Z,1.55
2023-05-17T16:02:45.412Z,1.77
2023-05-17T16:06:57.205Z,1.38
2023-05-17T16:11:10.025Z,1.55
2023-05-17T16:15:22.063Z,1.75
2023-05-17T16:19:34.463Z,1.70
2023-05-17T16:23:46.613Z,1.98
2023-05-17T16:27:58.324Z,1.38
2023-05-17T16:32:09.982Z,1.58
2023-05-17T16:36:22.717Z,1.75
2023-05-17T16:40:34.436Z,1.90
2023-05-17T16:44:46.154Z,2.00
2023-05-17T16:48:57.874Z,1.40
2023-05-17T16:53:10.822Z,1.50
2023-05-17T16:57:22.546Z,1.90
2023-05-17T17:01:34.258Z,1.70
2023-05-17T17:05:46.090Z,1.73
2023-05-17T17:09:57.752Z,2.13
2023-05-17T17:14:11.029Z,1.67
2023-05-17T17:18:22.810Z,1.48
2023-05-17T17:22:35.276Z,1.83
2023-05-17T17:26:47.578Z,1.92
2023-05-17T17:30:59.264Z,2.00
2023-05-17T17:35:10.961Z,1.65
2023-05-17T17:39:22.722Z,2.15
2023-05-17T17:43:34.470Z,1.73
2023-05-17T17:47:46.251Z,1.70
2023-05-17T17:51:58.272Z,1.42
2023-05-17T17:56:10.079Z,1.55
2023-05-17T18:00:21.987Z,1.77
2023-05-17T18:04:33.751Z,2.10
2023-05-17T18:08:46.072Z,1.63
2023-05-17T18:12:58.324Z,2.35
2023-05-17T18:17:10.519Z,1.42
2023-05-17T18:21:22.247Z,1.92
2023-05-17T18:25:34.315Z,1.92
2023-05-17T18:29:46.160Z,1.40
2023-05-17T18:33:57.890Z,2.13
2023-05-17T18:38:10.261Z,1.75
2023-05-17T18:42:22.126Z,1.50
2023-05-17T18:46:34.615Z,1.52
2023-05-17T18:50:46.359Z,1.92
2023-05-17T18:54:58.085Z,1.77
2023-05-17T18:59:09.770Z,1.60
2023-05-17T19:03:22.529Z,1.45
2023-05-17T19:07:34.444Z,2.00
2023-05-17T19:11:46.189Z,2.58
2023-05-17T19:15:57.907Z,2.78
2023-05-17T19:20:09.956Z,2.08
2023-05-17T19:24:21.696Z,1.67
2023-05-17T19:28:35.761Z,1.80
2023-05-17T19:32:47.624Z,1.83
2023-05-17T19:36:59.390Z,3.47
2023-05-17T19:41:11.199Z,3.42
2023-05-17T19:45:23.026Z,1.52
2023-05-17T19:49:34.796Z,1.70
2023-05-17T19:53:53.072Z,1.20
2023-05-17T19:58:06.000Z,1.42
2023-05-17T20:02:17.743Z,1.40
2023-05-17T20:06:29.486Z,2.38
2023-05-17T20:10:41.313Z,1.98
2023-05-17T20:14:53.508Z,1.52
2023-05-17T20:19:05.311Z,1.55
2023-05-17T20:23:17.328Z,1.83
2023-05-17T20:27:29.042Z,2.08
2023-05-17T20:31:40.853Z,1.45
2023-05-17T20:35:53.923Z,1.48
2023-05-17T20:40:08.997Z,1.58
2023-05-17T20:44:21.842Z,1.80
2023-05-17T20:48:34.305Z,1.52
2023-05-17T20:52:46.085Z,1.65
2023-05-17T20:56:58.452Z,1.30
2023-05-17T21:01:10.187Z,1.33
2023-05-17T21:05:21.998Z,1.33
2023-05-17T21:09:34.789Z,1.85
2023-05-17T21:13:46.657Z,1.50
2023-05-17T21:17:58.613Z,1.48
2023-05-17T21:22:10.360Z,2.30
2023-05-17T21:26:23.163Z,1.67
2023-05-17T21:30:34.857Z,1.57
2023-05-17T21:34:46.567Z,1.60
2023-05-17T21:38:58.218Z,1.27
2023-05-17T21:43:11.280Z,1.63
2023-05-17T21:47:23.899Z,1.60
2023-05-17T21:51:35.905Z,1.50
2023-05-17T22:00:04.494Z,1.60
2023-05-17T22:04:18.658Z,1.70
2023-05-17T22:08:30.316Z,1.50
2023-05-17T22:12:42.098Z,1.47
2023-05-17T22:16:56.008Z,1.50
2023-05-17T22:21:08.805Z,1.80
2023-05-17T22:25:20.473Z,2.20
2023-05-17T22:29:33.291Z,1.87
2023-05-17T22:33:45.548Z,1.50
2023-05-17T22:37:57.223Z,1.70
2023-05-17T22:42:09.075Z,1.30
2023-05-17T22:46:20.686Z,1.50
2023-05-17T22:50:33.061Z,1.80
2023-05-17T22:54:44.667Z,1.73
2023-05-17T22:58:56.452Z,1.73
2023-05-17T23:03:08.298Z,1.70
2023-05-17T23:07:20.025Z,1.87
2023-05-17T23:11:32.071Z,1.50
2023-05-17T23:15:46.202Z,1.77
2023-05-17T23:20:10.520Z,1.93
2023-05-17T23:24:25.969Z,1.70
2023-05-17T23:28:37.866Z,1.80
2023-05-17T23:32:51.345Z,2.00
2023-05-17T23:37:03.141Z,1.90
2023-05-17T23:41:18.358Z,2.00
2023-05-17T23:45:30.655Z,1.77
2023-05-17T23:49:42.449Z,1.80
2023-05-17T23:53:54.329Z,1.80
2023-05-17T23:58:05.986Z,1.60
